Time;durP1;ratioP1;P1;durP2;ratioP2;P2;SDS_P1;SDS_P2;PMS_P1;PMS_P2;Temp;Humidity;BMP_temperature;BMP_pressure;BME280_temperature;BME280_humidity;BME280_pressure;Samples;Min_cycle;Max_cycle;Signal;HPM_P1;HPM_P2
2022/03/22 12:00:52;;;;;;;14.60;8.88;;;17.80;53.90;;;;;;5107371;27;20434;-74
2022/03/22 12:03:22;;;;;;;12.45;9.40;;;31.10;27.10;;;;;;5108175;28;20529;-74
2022/03/22 12:05:48;;;;;;;14.43;8.52;;;31.70;24.80;;;;;;5107843;28;20019;-74
2022/03/22 12:08:15;;;;;;;10.18;8.13;;;32.10;23.80;;;;;;5076360;22;20036;-71
2022/03/22 12:10:46;;;;;;;11.23;7.38;;;32.70;24.50;;;;;;5048056;28;20116;-71
2022/03/22 12:13:12;;;;;;;11.95;8.10;;;33.50;22.00;;;;;;5064032;28;20017;-71
2022/03/22 12:15:38;;;;;;;10.02;7.72;;;32.90;22.80;;;;;;5067149;28;20033;-72
2022/03/22 12:18:04;;;;;;;13.90;7.63;;;32.80;23.70;;;;;;5069300;28;20035;-71
2022/03/22 12:21:40;;;;;;;10.82;7.65;;;33.30;23.00;;;;;;5067159;28;20403;-88
2022/03/22 12:24:07;;;;;;;12.55;7.25;;;33.10;24.30;;;;;;5066884;28;20530;-83
2022/03/22 12:26:32;;;;;;;9.75;6.95;;;33.10;23.40;;;;;;5065880;28;20021;-83
2022/03/22 12:28:58;;;;;;;10.73;6.43;;;31.00;23.70;;;;;;5048662;28;20071;-83
2022/03/22 12:31:25;;;;;;;11.02;7.07;;;30.60;23.40;;;;;;5047467;28;20087;-83
2022/03/22 12:33:51;;;;;;;8.25;6.57;;;30.90;23.60;;;;;;5047797;28;20017;-83
2022/03/22 12:36:21;;;;;;;11.55;6.80;;;32.50;25.10;;;;;;5045631;28;20021;-82
2022/03/22 12:38:46;;;;;;;10.85;7.18;;;31.70;24.00;;;;;;5045913;28;20108;-82
2022/03/22 12:41:12;;;;;;;9.00;6.40;;;32.20;23.20;;;;;;5047691;28;20121;-83
2022/03/22 12:43:45;;;;;;;12.48;6.93;;;32.30;23.20;;;;;;5050051;28;20025;-83
2022/03/22 12:46:13;;;;;;;11.27;6.88;;;33.00;22.90;;;;;;5046587;28;20022;-83
2022/03/22 12:48:40;;;;;;;8.77;6.72;;;33.10;24.70;;;;;;5046945;28;20032;-82
2022/03/22 12:51:08;;;;;;;8.93;6.70;;;33.40;21.30;;;;;;5044446;28;20028;-83
2022/03/22 12:53:34;;;;;;;11.10;6.93;;;35.90;21.70;;;;;;5044965;28;20437;-83
2022/03/22 12:56:00;;;;;;;9.10;6.15;;;34.80;21.10;;;;;;5047937;28;20025;-83
2022/03/22 12:58:28;;;;;;;12.50;7.20;;;35.20;21.20;;;;;;5045372;28;20478;-82
2022/03/22 13:00:53;;;;;;;9.77;6.18;;;33.00;22.00;;;;;;5047498;28;20052;-84
2022/03/22 13:03:20;;;;;;;8.82;6.50;;;35.10;22.90;;;;;;5048083;28;20017;-82
2022/03/22 13:05:47;;;;;;;12.55;6.25;;;35.50;21.20;;;;;;5047739;28;20025;-83
2022/03/22 13:08:26;;;;;;;8.73;6.70;;;36.10;20.90;;;;;;5052937;22;20421;-78
2022/03/22 13:16:29;;;;;;;9.13;6.68;;;35.00;20.60;;;;;;5022304;28;20083;-78
2022/03/22 13:18:59;;;;;;;12.05;7.05;;;34.00;21.50;;;;;;5027832;28;20010;-79
2022/03/22 13:21:27;;;;;;;9.15;6.97;;;33.90;21.20;;;;;;5027554;28;20044;-78
2022/03/22 13:24:10;;;;;;;11.10;7.65;;;34.40;21.30;;;;;;5027555;28;20030;-78
2022/03/22 13:26:38;;;;;;;12.52;8.20;;;32.00;21.90;;;;;;5027924;28;20458;-78
2022/03/22 13:29:15;;;;;;;10.57;7.53;;;33.00;21.90;;;;;;5026348;28;20406;-78
2022/03/22 13:31:59;;;;;;;10.13;7.90;;;33.20;22.90;;;;;;5028267;28;20105;-78
2022/03/22 13:34:31;;;;;;;13.95;8.98;;;34.70;21.60;;;;;;5021507;28;20018;-78
2022/03/22 13:37:12;;;;;;;11.77;7.38;;;33.50;20.60;;;;;;5014075;28;20025;-78
2022/03/22 13:39:41;;;;;;;12.07;7.15;;;35.70;20.90;;;;;;5011388;28;20038;-78
2022/03/22 13:42:15;;;;;;;10.15;6.78;;;36.20;21.50;;;;;;5014305;28;20083;-78
2022/03/22 13:45:01;;;;;;;11.43;7.50;;;36.20;20.90;;;;;;5014357;28;20018;-78
2022/03/22 13:47:29;;;;;;;9.75;7.10;;;35.30;20.10;;;;;;5009612;28;20033;-78
2022/03/22 13:49:57;;;;;;;10.02;6.63;;;35.10;20.90;;;;;;5007606;28;20018;-78
2022/03/22 13:52:28;;;;;;;11.25;6.20;;;33.00;22.10;;;;;;5013912;28;20025;-78
2022/03/22 13:54:54;;;;;;;11.32;6.47;;;35.20;22.70;;;;;;5014012;28;20500;-78
2022/03/22 13:57:23;;;;;;;12.30;6.10;;;36.60;21.10;;;;;;5011668;28;20470;-78
2022/03/22 13:59:56;;;;;;;8.75;6.50;;;37.10;22.30;;;;;;5012612;28;20117;-78
2022/03/22 14:02:22;;;;;;;9.85;6.88;;;37.00;19.90;;;;;;5012551;28;20474;-78
2022/03/22 14:04:48;;;;;;;11.20;6.63;;;35.90;20.20;;;;;;5012016;28;20215;-78
2022/03/22 14:07:13;;;;;;;8.88;6.10;;;36.10;21.40;;;;;;5041791;23;20102;-83
2022/03/22 14:09:39;;;;;;;10.10;5.90;;;36.10;20.70;;;;;;5053994;28;20028;-82
2022/03/22 14:12:05;;;;;;;8.50;5.95;;;34.70;20.70;;;;;;5053375;28;20366;-83
2022/03/22 14:14:31;;;;;;;9.93;5.85;;;32.00;21.60;;;;;;5053488;28;20021;-83
2022/03/22 14:16:56;;;;;;;8.10;5.93;;;31.60;23.40;;;;;;5048738;28;20025;-82
2022/03/22 14:19:22;;;;;;;9.43;5.90;;;33.60;22.90;;;;;;5033463;28;20018;-82
2022/03/22 14:21:48;;;;;;;8.68;5.63;;;32.20;22.60;;;;;;5033261;28;20084;-82
2022/03/22 14:24:15;;;;;;;7.97;6.00;;;33.90;23.00;;;;;;5033158;28;20053;-82
2022/03/22 14:26:41;;;;;;;9.60;6.05;;;34.60;23.10;;;;;;5032354;28;20083;-82
2022/03/22 14:29:07;;;;;;;9.32;5.80;;;35.70;22.10;;;;;;5033219;28;20045;-82
2022/03/22 14:31:33;;;;;;;9.70;6.72;;;35.90;21.60;;;;;;5033438;28;20311;-82
2022/03/22 14:33:58;;;;;;;13.32;6.70;;;35.40;21.10;;;;;;5033274;28;20034;-82
2022/03/22 14:36:24;;;;;;;10.68;6.90;;;34.30;21.60;;;;;;5033036;28;20036;-82
2022/03/22 14:38:50;;;;;;;8.75;6.50;;;34.70;22.90;;;;;;5032598;28;20481;-82
2022/03/22 14:41:27;;;;;;;19.10;7.13;;;32.30;23.20;;;;;;5032937;28;20029;-82
2022/03/22 14:43:54;;;;;;;10.85;7.40;;;31.50;24.70;;;;;;5031726;28;20028;-82
2022/03/22 14:46:21;;;;;;;14.88;7.82;;;30.80;25.10;;;;;;5033109;28;20021;-82
2022/03/22 14:48:49;;;;;;;12.07;7.78;;;30.30;25.40;;;;;;5031498;28;20014;-81
2022/03/22 14:54:05;;;;;;;16.00;7.72;;;29.30;26.10;;;;;;5020942;28;20090;-81
2022/03/22 14:59:16;;;;;;;11.32;8.05;;;29.40;26.20;;;;;;5032460;28;20083;-81
2022/03/22 15:01:42;;;;;;;14.57;8.85;;;28.50;28.10;;;;;;5032373;28;20502;-81
2022/03/22 15:04:09;;;;;;;12.75;8.57;;;29.30;26.90;;;;;;5031298;28;20065;-81
2022/03/22 15:09:05;;;;;;;16.45;9.05;;;29.70;26.60;;;;;;4991225;28;20046;-77
2022/03/22 15:11:33;;;;;;;12.30;8.57;;;29.70;27.40;;;;;;4992222;28;20617;-77
2022/03/22 15:13:59;;;;;;;16.17;8.52;;;29.30;27.40;;;;;;4992811;28;20414;-77
2022/03/22 15:16:24;;;;;;;13.50;9.10;;;29.20;27.40;;;;;;4992869;28;20022;-77
2022/03/22 15:18:50;;;;;;;12.52;8.55;;;29.10;28.10;;;;;;4992553;28;20032;-77
2022/03/22 15:21:16;;;;;;;15.38;9.02;;;28.90;27.90;;;;;;4992888;28;20037;-77
2022/03/22 15:23:42;;;;;;;15.10;8.77;;;28.20;28.30;;;;;;4992150;28;20014;-77
2022/03/22 15:26:08;;;;;;;12.38;9.18;;;27.40;29.00;;;;;;4998597;28;20029;-77
2022/03/22 15:28:35;;;;;;;14.85;8.52;;;27.40;29.50;;;;;;4991518;28;20026;-77
2022/03/22 15:31:02;;;;;;;17.73;9.25;;;27.50;29.50;;;;;;4991783;28;20042;-77
2022/03/22 15:33:28;;;;;;;19.27;9.73;;;26.40;30.00;;;;;;4990517;28;20113;-77
2022/03/22 15:35:54;;;;;;;13.43;8.77;;;26.20;31.50;;;;;;4991619;28;20105;-77
2022/03/22 15:38:20;;;;;;;13.65;7.50;;;25.70;30.00;;;;;;4991301;28;20030;-77
2022/03/22 15:40:46;;;;;;;12.52;8.05;;;25.20;31.10;;;;;;4990953;28;20410;-77
2022/03/22 15:43:14;;;;;;;15.93;7.80;;;25.10;31.20;;;;;;4991613;28;20022;-77
2022/03/22 15:45:40;;;;;;;15.73;8.60;;;24.80;31.10;;;;;;4991790;28;20466;-77
2022/03/22 15:48:06;;;;;;;16.05;8.57;;;24.50;32.20;;;;;;4991400;28;20030;-77
2022/03/22 15:50:33;;;;;;;11.90;7.75;;;24.20;32.60;;;;;;4990929;28;20113;-77
2022/03/22 15:53:02;;;;;;;13.02;7.60;;;23.80;33.30;;;;;;4991178;28;20360;-77
2022/03/22 15:55:29;;;;;;;13.63;8.52;;;23.20;34.80;;;;;;4989280;28;20430;-76
2022/03/22 15:57:56;;;;;;;11.45;7.88;;;22.70;33.80;;;;;;4991239;28;20022;-77
2022/03/22 16:00:24;;;;;;;17.50;8.75;;;22.10;35.80;;;;;;4991987;28;20045;-77
2022/03/22 16:02:50;;;;;;;11.50;7.95;;;21.90;36.40;;;;;;4991695;28;20379;-77
2022/03/22 16:05:16;;;;;;;11.98;8.15;;;21.70;36.90;;;;;;4991653;28;20018;-77
2022/03/22 16:07:42;;;;;;;10.45;7.55;;;21.70;37.30;;;;;;5015847;23;20077;-81
2022/03/22 16:10:08;;;;;;;12.82;8.18;;;21.70;38.00;;;;;;4982626;28;20026;-81
2022/03/22 16:12:34;;;;;;;11.73;7.80;;;21.10;39.20;;;;;;4990819;28;20023;-80
2022/03/22 16:15:00;;;;;;;13.90;7.80;;;20.70;38.90;;;;;;4987881;28;20081;-81
2022/03/22 16:17:26;;;;;;;14.90;8.45;;;20.70;39.10;;;;;;4990828;28;20475;-81
2022/03/22 16:19:53;;;;;;;15.88;8.55;;;20.70;40.30;;;;;;4989160;28;20026;-81
2022/03/22 16:22:21;;;;;;;16.05;9.38;;;20.40;39.90;;;;;;4990821;28;20030;-81
2022/03/22 16:24:52;;;;;;;13.27;9.20;;;20.10;40.50;;;;;;4983583;28;20041;-80
2022/03/22 16:27:19;;;;;;;15.33;8.90;;;20.00;40.50;;;;;;4990580;28;20015;-80
2022/03/22 16:29:45;;;;;;;13.43;8.38;;;19.70;41.20;;;;;;4989424;28;20022;-80
2022/03/22 16:32:11;;;;;;;11.10;8.13;;;19.80;41.60;;;;;;4990471;28;20034;-81
2022/03/22 16:37:21;;;;;;;12.93;8.15;;;19.70;41.90;;;;;;4981967;28;20024;-80
2022/03/22 16:39:50;;;;;;;14.95;9.25;;;19.60;41.70;;;;;;4982890;28;20031;-80
2022/03/22 16:42:18;;;;;;;16.10;9.05;;;19.10;43.40;;;;;;4990776;28;20023;-80
2022/03/22 16:44:47;;;;;;;16.52;10.18;;;19.00;43.30;;;;;;4989558;28;20109;-80
2022/03/22 16:47:22;;;;;;;16.77;10.30;;;19.00;44.50;;;;;;4990515;28;20025;-80
2022/03/22 16:49:50;;;;;;;16.67;10.20;;;18.90;44.30;;;;;;4977703;28;20022;-80
2022/03/22 16:52:19;;;;;;;19.45;9.88;;;19.00;43.00;;;;;;4989895;28;20049;-81
2022/03/22 16:54:46;;;;;;;15.48;9.30;;;18.90;43.70;;;;;;4986903;28;20026;-80
2022/03/22 16:57:11;;;;;;;12.43;9.10;;;18.80;44.40;;;;;;4990802;28;20375;-80
2022/03/22 16:59:37;;;;;;;18.13;10.02;;;18.80;44.40;;;;;;4990459;28;20475;-80
2022/03/22 17:02:04;;;;;;;17.05;9.02;;;19.10;43.90;;;;;;4990217;28;20033;-80
2022/03/22 17:04:30;;;;;;;14.43;9.35;;;19.00;43.10;;;;;;5005849;28;20046;-80
2022/03/22 17:06:56;;;;;;;17.80;10.00;;;19.60;42.20;;;;;;5006795;22;20041;-79
2022/03/22 17:09:25;;;;;;;15.88;9.93;;;20.00;40.90;;;;;;5015008;28;20477;-78
2022/03/22 17:11:55;;;;;;;17.27;9.65;;;20.30;40.80;;;;;;5014984;28;20076;-79
2022/03/22 17:14:21;;;;;;;17.38;9.73;;;20.30;40.20;;;;;;5013722;28;20026;-79
2022/03/22 17:16:47;;;;;;;18.20;9.75;;;20.10;39.10;;;;;;5014956;28;20097;-79
2022/03/22 17:19:14;;;;;;;15.02;9.82;;;19.20;40.00;;;;;;5006161;28;20014;-78
2022/03/22 17:21:40;;;;;;;19.23;10.02;;;18.40;42.40;;;;;;5012310;28;20044;-78
2022/03/22 17:24:06;;;;;;;16.13;9.20;;;18.40;43.70;;;;;;5013567;28;20097;-78
2022/03/22 17:26:34;;;;;;;17.52;9.20;;;18.00;43.70;;;;;;5005600;28;20061;-78
2022/03/22 17:29:01;;;;;;;17.60;10.73;;;17.70;45.20;;;;;;5013613;28;20025;-78
2022/03/22 17:31:28;;;;;;;15.13;10.00;;;17.30;45.40;;;;;;5013021;28;20109;-78
2022/03/22 17:33:55;;;;;;;20.20;10.13;;;16.80;46.20;;;;;;5013418;28;20490;-78
2022/03/22 17:36:23;;;;;;;17.95;11.02;;;16.40;48.50;;;;;;5013733;28;20026;-78
2022/03/22 17:38:51;;;;;;;14.75;10.68;;;16.00;48.80;;;;;;5009098;28;20018;-77
2022/03/22 17:41:17;;;;;;;18.35;11.23;;;15.70;50.70;;;;;;5011425;28;20041;-78
2022/03/22 17:43:48;;;;;;;20.45;10.68;;;15.40;51.30;;;;;;5010240;28;20029;-78
2022/03/22 17:46:15;;;;;;;20.80;11.75;;;15.10;53.40;;;;;;5013407;28;20431;-78
2022/03/22 17:48:41;;;;;;;23.15;11.82;;;14.90;53.90;;;;;;5012413;28;20033;-77
2022/03/22 17:51:08;;;;;;;21.77;11.70;;;14.70;55.10;;;;;;5010002;28;20075;-78
2022/03/22 17:53:34;;;;;;;19.10;11.07;;;14.50;56.00;;;;;;5011803;28;20426;-78
2022/03/22 17:56:01;;;;;;;16.15;11.13;;;14.30;57.20;;;;;;5012228;28;20026;-77
2022/03/22 17:58:28;;;;;;;16.40;10.68;;;14.10;59.50;;;;;;5011285;28;20018;-75
2022/03/22 18:00:54;;;;;;;20.17;12.13;;;13.90;59.40;;;;;;5012065;28;20049;-77
2022/03/22 18:03:21;;;;;;;20.75;12.32;;;13.80;61.20;;;;;;5012562;28;20049;-77
2022/03/22 18:05:50;;;;;;;18.98;12.63;;;13.60;61.50;;;;;;5002244;28;20057;-77
2022/03/22 18:08:16;;;;;;;20.02;11.63;;;13.40;62.20;;;;;;5008043;23;20062;-79
2022/03/22 18:10:42;;;;;;;23.20;12.30;;;13.20;62.90;;;;;;4973353;28;20124;-80
2022/03/22 18:13:08;;;;;;;19.70;11.27;;;13.00;64.10;;;;;;4978423;28;20019;-80
2022/03/22 18:15:34;;;;;;;19.58;12.35;;;12.80;66.20;;;;;;4973775;28;20035;-77
2022/03/22 18:18:00;;;;;;;24.80;13.48;;;12.60;66.60;;;;;;4972714;28;20071;-80
2022/03/22 18:20:25;;;;;;;34.70;15.13;;;12.40;66.50;;;;;;4971541;28;20038;-77
2022/03/22 18:22:52;;;;;;;26.08;14.52;;;12.30;67.40;;;;;;4973063;28;20027;-78
2022/03/22 18:25:19;;;;;;;25.45;15.10;;;12.20;68.20;;;;;;4971963;28;20035;-78
2022/03/22 18:27:47;;;;;;;26.35;13.52;;;12.00;68.80;;;;;;4970754;28;20043;-77
2022/03/22 18:30:14;;;;;;;24.33;12.98;;;11.80;69.50;;;;;;4972748;28;20023;-79
2022/03/22 18:32:40;;;;;;;22.13;11.85;;;11.60;70.30;;;;;;4973228;28;20055;-79
2022/03/22 18:35:08;;;;;;;24.20;13.55;;;11.40;71.10;;;;;;4972985;28;20384;-80
2022/03/22 18:37:34;;;;;;;25.73;14.32;;;11.30;72.00;;;;;;4971194;28;20054;-79
2022/03/22 18:40:00;;;;;;;30.73;15.63;;;11.20;73.30;;;;;;4972241;28;20030;-79
2022/03/22 18:42:26;;;;;;;23.80;13.73;;;11.10;73.70;;;;;;4971990;28;20066;-80
2022/03/22 18:44:52;;;;;;;26.25;14.85;;;10.90;74.20;;;;;;4972880;28;20022;-79
2022/03/22 18:47:19;;;;;;;26.92;14.25;;;10.80;75.30;;;;;;4972004;28;20042;-79
2022/03/22 18:49:45;;;;;;;22.02;13.55;;;10.70;75.80;;;;;;4971936;28;20030;-79
2022/03/22 18:52:12;;;;;;;24.98;13.85;;;10.50;76.40;;;;;;4972541;28;20042;-79
2022/03/22 18:54:39;;;;;;;21.15;13.68;;;10.50;77.70;;;;;;4969759;28;20029;-79
2022/03/22 18:57:05;;;;;;;25.90;13.95;;;10.40;77.30;;;;;;4972631;28;20023;-79
2022/03/22 18:59:30;;;;;;;27.45;14.70;;;10.30;77.80;;;;;;4971141;28;20029;-79
2022/03/22 19:01:56;;;;;;;24.63;14.93;;;10.10;78.80;;;;;;4972695;28;20035;-79
2022/03/22 19:04:23;;;;;;;22.92;14.45;;;9.90;79.60;;;;;;4972383;28;20022;-79
2022/03/22 20:08:58;;;;;;;29.92;16.63;;;7.60;88.00;;;;;;5153644;23;20511;-78
2022/03/22 20:11:24;;;;;;;32.42;18.30;;;7.50;88.40;;;;;;5049940;28;20119;-77
2022/03/22 20:13:50;;;;;;;30.88;17.90;;;7.50;88.90;;;;;;5046204;28;20025;-79
2022/03/22 20:16:17;;;;;;;38.38;19.70;;;7.40;88.40;;;;;;5052141;28;20086;-78
2022/03/22 20:18:43;;;;;;;32.85;18.15;;;7.40;89.40;;;;;;5029725;28;20544;-78
2022/03/22 20:21:09;;;;;;;34.33;18.75;;;7.30;89.40;;;;;;5026994;28;20034;-78
2022/03/22 20:23:35;;;;;;;31.88;17.65;;;7.20;89.70;;;;;;5027333;28;20053;-78
2022/03/22 20:26:02;;;;;;;31.52;19.52;;;7.10;90.00;;;;;;5027136;28;20665;-78
2022/03/22 20:28:28;;;;;;;38.00;19.65;;;7.10;90.40;;;;;;5025053;28;20064;-78
2022/03/22 20:30:55;;;;;;;33.87;19.33;;;7.00;90.50;;;;;;5026699;28;20130;-78
2022/03/22 20:33:21;;;;;;;32.38;17.65;;;7.00;90.60;;;;;;5024695;28;20021;-79
2022/03/22 20:35:47;;;;;;;35.63;19.55;;;7.00;90.70;;;;;;5026935;28;20100;-80
2022/03/22 20:38:14;;;;;;;32.90;19.48;;;6.90;90.80;;;;;;5026446;28;20116;-80
2022/03/22 20:40:40;;;;;;;31.58;19.25;;;6.90;91.00;;;;;;5027319;28;20041;-78
2022/03/22 20:43:09;;;;;;;40.67;19.67;;;6.90;90.90;;;;;;5028889;28;20032;-80
2022/03/22 20:45:35;;;;;;;31.67;18.58;;;6.80;91.10;;;;;;5031367;28;20704;-80
2022/03/22 20:48:01;;;;;;;35.65;18.52;;;6.70;91.10;;;;;;5027170;28;20025;-80
2022/03/22 20:50:27;;;;;;;35.30;18.83;;;6.70;91.30;;;;;;5031170;28;20022;-80
2022/03/22 20:52:53;;;;;;;35.83;19.00;;;6.70;91.30;;;;;;5030740;28;20029;-80
2022/03/22 20:55:19;;;;;;;36.72;19.50;;;6.70;91.40;;;;;;5031346;28;20029;-79
2022/03/22 21:00:30;;;;;;;37.17;19.90;;;6.60;91.50;;;;;;5031342;28;20055;-79
2022/03/22 21:02:57;;;;;;;35.22;19.30;;;6.60;91.50;;;;;;5029370;28;20030;-80
2022/03/22 21:05:23;;;;;;;37.15;18.73;;;6.50;91.80;;;;;;5031240;28;20402;-79
2022/03/22 23:10:49;;;;;;;44.47;21.63;;;4.40;95.90;;;;;;4992506;28;20537;-76
2022/03/22 23:13:15;;;;;;;45.83;22.90;;;4.30;96.20;;;;;;4975581;28;20031;-76
2022/03/22 23:15:41;;;;;;;42.93;22.13;;;4.30;96.50;;;;;;4991482;28;20026;-76
2022/03/22 23:18:09;;;;;;;55.27;23.27;;;4.20;96.80;;;;;;4992487;28;20422;-76
2022/03/22 23:20:35;;;;;;;52.77;25.27;;;4.20;96.70;;;;;;4991689;28;20022;-76
2022/03/22 23:23:03;;;;;;;52.50;22.90;;;4.30;96.90;;;;;;4992806;28;20018;-76
2022/03/22 23:25:29;;;;;;;48.10;23.97;;;4.30;96.80;;;;;;4992318;28;20022;-76
2022/03/22 23:27:54;;;;;;;53.73;24.47;;;4.20;96.60;;;;;;4999354;28;20489;-76
2022/03/22 23:30:21;;;;;;;53.20;24.03;;;4.20;96.70;;;;;;4992252;28;20030;-76
2022/03/22 23:32:46;;;;;;;56.17;24.53;;;4.20;96.60;;;;;;4974828;28;20113;-76
2022/03/22 23:35:12;;;;;;;56.07;26.17;;;4.20;96.80;;;;;;4992421;28;20102;-76
2022/03/22 23:37:38;;;;;;;52.63;23.80;;;4.20;96.80;;;;;;4992420;28;20034;-76
2022/03/22 23:40:04;;;;;;;60.73;25.17;;;4.20;96.60;;;;;;4992224;28;20030;-76
2022/03/22 23:42:30;;;;;;;53.47;23.60;;;4.20;96.60;;;;;;4991872;28;20018;-76
2022/03/22 23:44:55;;;;;;;52.87;24.47;;;4.10;96.40;;;;;;4973496;28;20022;-75
2022/03/22 23:47:21;;;;;;;52.80;24.47;;;4.10;96.80;;;;;;4974420;28;20014;-76
2022/03/22 23:49:47;;;;;;;51.37;23.43;;;4.20;96.80;;;;;;4974163;28;20046;-76
2022/03/22 23:52:13;;;;;;;58.10;24.33;;;4.10;96.60;;;;;;4991390;28;20027;-76
2022/03/22 23:54:39;;;;;;;51.20;23.60;;;4.00;96.60;;;;;;4992020;28;20498;-76
2022/03/22 23:57:04;;;;;;;60.90;26.27;;;3.90;96.70;;;;;;4990905;28;20070;-76
2022/03/22 23:59:30;;;;;;;52.40;25.33;;;3.90;96.90;;;;;;4992387;28;20081;-76
